createdAt,value
2022-10-02T00:01:47.617Z,17.10
2022-10-02T00:04:54.504Z,17.10
2022-10-02T00:07:31.561Z,17.20
2022-10-02T00:10:06.972Z,17.20
2022-10-02T00:12:39.052Z,17.10
2022-10-02T00:15:24.708Z,17.10
2022-10-02T00:18:05.702Z,17.00
2022-10-02T00:20:48.874Z,17.00
2022-10-02T00:23:37.550Z,16.90
2022-10-02T00:26:59.363Z,16.90
2022-10-02T00:29:46.413Z,16.90
2022-10-02T00:32:30.861Z,16.90
2022-10-02T00:35:21.113Z,16.80
2022-10-02T00:38:02.619Z,16.70
2022-10-02T00:40:59.744Z,16.80
2022-10-02T00:43:49.886Z,16.80
2022-10-02T00:46:58.758Z,16.90
2022-10-02T00:50:02.924Z,16.90
2022-10-02T00:53:07.874Z,16.90
2022-10-02T00:56:03.701Z,16.90
2022-10-02T00:58:54.963Z,16.90
2022-10-02T01:01:55.945Z,16.90
2022-10-02T01:04:37.740Z,16.90
2022-10-02T01:07:18.922Z,16.90
2022-10-02T01:10:01.942Z,16.80
2022-10-02T01:12:33.448Z,16.80
2022-10-02T01:15:16.579Z,16.80
2022-10-02T01:17:52.594Z,16.80
2022-10-02T01:20:48.839Z,16.80
2022-10-02T01:23:48.945Z,16.90
2022-10-02T01:26:18.381Z,16.90
2022-10-02T01:28:50.130Z,16.90
2022-10-02T01:31:20.945Z,16.80
2022-10-02T01:33:52.234Z,16.80
2022-10-02T01:36:23.738Z,16.80
2022-10-02T01:39:00.576Z,16.80
2022-10-02T01:41:38.530Z,16.70
2022-10-02T01:44:09.823Z,16.60
2022-10-02T01:47:15.777Z,16.70
2022-10-02T01:50:13.870Z,16.70
2022-10-02T01:53:08.097Z,16.80
2022-10-02T01:55:43.592Z,16.70
2022-10-02T01:58:46.826Z,16.70
2022-10-02T02:01:35.489Z,16.70
2022-10-02T02:04:30.973Z,16.60
2022-10-02T02:07:30.605Z,16.60
2022-10-02T02:10:25.178Z,16.50
2022-10-02T02:13:09.011Z,16.50
2022-10-02T02:16:27.127Z,16.50
2022-10-02T02:19:34.675Z,16.50
2022-10-02T02:22:23.855Z,16.50
2022-10-02T02:25:24.420Z,16.40
2022-10-02T02:27:59.904Z,16.40
2022-10-02T02:30:36.571Z,16.40
2022-10-02T02:33:14.868Z,16.40
2022-10-02T02:35:51.264Z,16.30
2022-10-02T02:38:34.021Z,16.30
2022-10-02T02:41:18.747Z,16.20
2022-10-02T02:44:00.883Z,16.10
2022-10-02T02:47:00.501Z,16.10
2022-10-02T02:49:45.920Z,16.00
2022-10-02T02:52:24.148Z,16.10
2022-10-02T02:55:12.369Z,16.00
2022-10-02T02:58:19.956Z,16.10
2022-10-02T03:01:01.722Z,16.10
2022-10-02T03:03:35.436Z,16.10
2022-10-02T03:06:21.353Z,16.20
2022-10-02T03:08:53.856Z,16.20
2022-10-02T03:11:46.045Z,16.20
2022-10-02T03:14:51.929Z,16.10
2022-10-02T03:17:55.984Z,16.10
2022-10-02T03:20:51.938Z,16.10
2022-10-02T03:23:47.334Z,16.10
2022-10-02T03:26:44.895Z,16.10
2022-10-02T03:29:30.936Z,16.10
2022-10-02T03:32:02.857Z,16.20
2022-10-02T03:34:35.762Z,16.20
2022-10-02T03:37:10.631Z,16.20
2022-10-02T03:39:49.976Z,16.30
2022-10-02T03:42:25.491Z,16.20
2022-10-02T03:44:56.357Z,16.10
2022-10-02T03:47:29.990Z,16.10
2022-10-02T03:50:03.819Z,16.10
2022-10-02T03:52:36.295Z,16.00
2022-10-02T03:55:36.160Z,16.00
2022-10-02T03:58:18.293Z,16.00
2022-10-02T04:01:07.680Z,16.00
2022-10-02T04:03:46.564Z,16.00
2022-10-02T04:06:39.159Z,16.10
2022-10-02T04:09:25.832Z,16.00
2022-10-02T04:12:21.771Z,16.00
2022-10-02T04:15:00.929Z,15.90
2022-10-02T04:18:05.469Z,15.80
2022-10-02T04:21:36.684Z,15.90
2022-10-02T04:24:20.493Z,15.90
2022-10-02T04:27:12.895Z,16.00
2022-10-02T04:29:53.078Z,15.90
2022-10-02T04:32:40.795Z,15.90
2022-10-02T04:35:42.950Z,16.00
2022-10-02T04:38:45.015Z,15.90
2022-10-02T04:41:53.641Z,16.00
2022-10-02T04:45:20.384Z,16.00
2022-10-02T04:48:17.788Z,15.80
2022-10-02T04:51:07.525Z,15.70
2022-10-02T04:54:02.230Z,15.60
2022-10-02T04:57:29.500Z,15.60
2022-10-02T05:00:16.032Z,15.60
2022-10-02T05:03:29.397Z,15.60
2022-10-02T05:06:35.528Z,15.60
2022-10-02T05:09:39.283Z,15.70
2022-10-02T05:12:30.004Z,15.70
2022-10-02T05:15:38.632Z,15.80
2022-10-02T05:18:25.941Z,15.80
2022-10-02T05:21:31.120Z,15.80
2022-10-02T05:24:05.191Z,15.90
2022-10-02T05:27:05.552Z,15.90
2022-10-02T05:30:11.290Z,16.00
2022-10-02T05:33:38.515Z,16.00
2022-10-02T05:36:33.789Z,16.00
2022-10-02T05:39:28.144Z,15.90
2022-10-02T05:42:27.660Z,15.90
2022-10-02T05:45:08.101Z,15.90
2022-10-02T05:47:47.368Z,15.80
2022-10-02T05:50:29.219Z,15.80
2022-10-02T05:53:23.887Z,15.90
2022-10-02T05:56:03.380Z,16.10
2022-10-02T05:59:38.425Z,16.10
2022-10-02T06:02:39.612Z,16.00
2022-10-02T06:05:29.711Z,16.00
2022-10-02T06:08:07.891Z,16.00
2022-10-02T06:10:57.458Z,16.00
2022-10-02T06:13:55.089Z,16.00
2022-10-02T06:16:35.499Z,16.00
2022-10-02T06:19:11.932Z,15.90
2022-10-02T06:22:11.858Z,15.80
2022-10-02T06:24:58.137Z,15.80
2022-10-02T06:27:57.751Z,15.80
2022-10-02T06:33:33.962Z,15.80
2022-10-02T06:36:43.928Z,15.90
2022-10-02T06:39:46.081Z,15.90
2022-10-02T06:42:51.337Z,15.90
2022-10-02T06:46:01.773Z,15.90
2022-10-02T06:48:51.971Z,15.80
2022-10-02T06:51:59.256Z,15.90
2022-10-02T06:54:50.304Z,16.00
2022-10-02T06:57:53.998Z,16.00
2022-10-02T07:00:28.492Z,16.00
2022-10-02T07:03:34.498Z,16.00
2022-10-02T07:06:27.552Z,16.10
2022-10-02T07:09:26.355Z,16.20
2022-10-02T07:12:39.097Z,16.20
2022-10-02T07:15:23.978Z,16.30
2022-10-02T07:18:38.323Z,16.40
2022-10-02T07:21:42.708Z,16.30
2022-10-02T07:24:50.046Z,16.30
2022-10-02T07:27:34.464Z,16.40
2022-10-02T07:30:11.973Z,16.40
2022-10-02T07:32:47.734Z,16.40
2022-10-02T07:35:47.237Z,16.50
2022-10-02T07:39:09.229Z,16.50
2022-10-02T07:42:23.532Z,16.60
2022-10-02T07:44:59.241Z,16.70
2022-10-02T07:48:06.184Z,16.60
2022-10-02T07:51:35.635Z,16.80
2022-10-02T07:54:29.127Z,16.80
2022-10-02T07:57:07.678Z,16.80
2022-10-02T07:59:48.123Z,16.80
2022-10-02T08:02:34.192Z,16.90
2022-10-02T08:05:11.376Z,17.00
2022-10-02T08:07:44.602Z,17.00
2022-10-02T08:10:27.875Z,17.10
2022-10-02T08:13:08.645Z,17.10
2022-10-02T08:15:40.083Z,17.20
2022-10-02T08:18:38.087Z,17.30
2022-10-02T08:21:17.506Z,17.30
2022-10-02T08:24:03.842Z,17.30
2022-10-02T08:26:43.058Z,17.40
2022-10-02T08:29:31.846Z,17.40
2022-10-02T08:32:03.737Z,17.50
2022-10-02T08:34:38.035Z,17.60
2022-10-02T08:37:26.473Z,17.70
2022-10-02T08:40:36.425Z,17.70
2022-10-02T08:43:35.391Z,17.80
2022-10-02T08:46:36.580Z,17.80
2022-10-02T08:49:45.986Z,17.90
2022-10-02T08:52:46.370Z,18.00
2022-10-02T08:55:53.405Z,18.00
2022-10-02T08:58:46.094Z,18.00
2022-10-02T09:01:46.367Z,18.10
2022-10-02T09:04:39.004Z,18.10
2022-10-02T09:07:40.927Z,18.10
2022-10-02T09:10:40.123Z,18.20
2022-10-02T09:13:43.417Z,18.20
2022-10-02T09:16:41.701Z,18.40
2022-10-02T09:19:38.444Z,18.50
2022-10-02T09:22:42.374Z,18.60
2022-10-02T09:25:37.442Z,18.60
2022-10-02T09:28:30.402Z,18.70
2022-10-02T09:31:26.614Z,18.70
2022-10-02T09:34:36.798Z,18.70
2022-10-02T09:37:31.185Z,18.80
2022-10-02T09:40:27.928Z,18.90
2022-10-02T09:43:28.428Z,19.10
2022-10-02T09:46:25.344Z,19.20
2022-10-02T09:49:27.253Z,19.40
2022-10-02T09:52:20.848Z,19.50
2022-10-02T09:55:21.206Z,19.50
2022-10-02T09:58:32.409Z,19.50
2022-10-02T10:01:44.841Z,19.50
2022-10-02T10:04:17.399Z,19.30
2022-10-02T10:07:22.757Z,19.20
2022-10-02T10:10:23.511Z,19.20
2022-10-02T10:13:26.304Z,19.30
2022-10-02T10:16:33.578Z,19.30
2022-10-02T10:19:24.945Z,19.30
2022-10-02T10:22:30.422Z,19.40
2022-10-02T10:25:10.728Z,19.40
2022-10-02T10:28:09.371Z,19.50
2022-10-02T10:31:03.057Z,19.50
2022-10-02T10:34:01.217Z,19.60
2022-10-02T10:37:22.423Z,19.60
2022-10-02T10:40:02.220Z,19.70
2022-10-02T10:43:07.043Z,19.80
2022-10-02T10:46:11.159Z,19.90
2022-10-02T10:49:10.015Z,19.90
2022-10-02T10:52:19.416Z,19.80
2022-10-02T10:55:07.811Z,19.90
2022-10-02T10:58:21.122Z,20.00
2022-10-02T11:01:15.812Z,20.10
2022-10-02T11:04:39.860Z,20.10
2022-10-02T11:07:17.259Z,20.10
2022-10-02T11:10:26.506Z,20.10
2022-10-02T11:13:34.188Z,20.10
2022-10-02T11:16:29.316Z,20.10
2022-10-02T11:19:32.429Z,20.10
2022-10-02T11:22:26.081Z,20.20
2022-10-02T11:25:11.939Z,20.30
2022-10-02T11:28:24.339Z,20.40
2022-10-02T11:31:00.743Z,20.40
2022-10-02T11:34:04.427Z,20.50
2022-10-02T11:36:56.783Z,20.60
2022-10-02T11:39:48.688Z,20.60
2022-10-02T11:42:36.454Z,20.60
2022-10-02T11:46:11.229Z,20.60
2022-10-02T11:49:32.495Z,20.50
2022-10-02T11:52:32.484Z,20.60
2022-10-02T11:55:32.387Z,20.90
2022-10-02T11:58:46.353Z,21.00
2022-10-02T12:01:57.577Z,21.10
2022-10-02T12:05:15.865Z,21.30
2022-10-02T12:08:15.413Z,21.50
2022-10-02T12:11:37.565Z,21.30
2022-10-02T12:14:31.891Z,21.40
2022-10-02T12:17:29.299Z,21.60
2022-10-02T12:21:00.328Z,21.90
2022-10-02T12:24:09.975Z,21.90
2022-10-02T12:27:27.979Z,22.10
2022-10-02T12:30:24.629Z,22.30
2022-10-02T12:33:29.413Z,22.50
2022-10-02T12:36:36.356Z,22.40
2022-10-02T12:39:43.368Z,22.70
2022-10-02T12:42:36.856Z,22.80
2022-10-02T12:45:46.467Z,23.10
2022-10-02T12:48:54.047Z,23.30
2022-10-02T12:51:42.731Z,23.30
2022-10-02T12:54:38.015Z,23.30
2022-10-02T12:57:47.714Z,23.20
2022-10-02T13:00:24.815Z,23.80
2022-10-02T13:03:18.462Z,24.90
2022-10-02T13:06:26.031Z,25.50
2022-10-02T13:09:12.713Z,27.80
2022-10-02T13:12:07.782Z,30.60
2022-10-02T13:14:44.007Z,31.60
2022-10-02T13:17:47.448Z,32.20
2022-10-02T13:20:44.615Z,34.40
2022-10-02T13:23:45.768Z,36.00
2022-10-02T13:26:47.750Z,35.80
2022-10-02T13:29:44.770Z,36.60
2022-10-02T13:32:49.468Z,36.20
2022-10-02T13:35:49.476Z,35.50
2022-10-02T13:38:47.843Z,36.50
2022-10-02T13:41:39.315Z,37.20
2022-10-02T13:45:07.955Z,36.00
2022-10-02T13:47:53.750Z,37.70
2022-10-02T13:51:03.711Z,39.20
2022-10-02T13:54:19.407Z,40.80
2022-10-02T13:56:56.886Z,41.80
2022-10-02T13:59:57.845Z,39.90
2022-10-02T14:02:37.040Z,41.00
2022-10-02T14:05:44.414Z,40.00
2022-10-02T14:08:49.569Z,38.20
2022-10-02T14:11:44.992Z,34.80
2022-10-02T14:14:56.558Z,33.80
2022-10-02T14:17:46.465Z,35.40
2022-10-02T14:20:23.992Z,36.30
2022-10-02T14:23:23.524Z,37.00
2022-10-02T14:26:14.753Z,38.20
2022-10-02T14:29:29.519Z,37.20
2022-10-02T14:32:06.358Z,36.00
2022-10-02T14:35:00.639Z,34.90
2022-10-02T14:37:55.947Z,35.00
2022-10-02T14:40:34.336Z,34.50
2022-10-02T14:43:36.066Z,33.00
2022-10-02T14:46:21.818Z,31.70
2022-10-02T14:49:32.011Z,31.40
2022-10-02T14:52:05.557Z,31.00
2022-10-02T14:54:49.586Z,30.80
2022-10-02T14:57:44.479Z,30.40
2022-10-02T15:03:19.621Z,29.50
2022-10-02T15:06:09.328Z,28.60
2022-10-02T15:09:11.838Z,28.00
2022-10-02T15:12:18.825Z,27.90
2022-10-02T15:15:23.150Z,27.70
2022-10-02T15:18:32.637Z,27.60
2022-10-02T15:21:41.170Z,27.20
2022-10-02T15:24:30.005Z,27.10
2022-10-02T15:27:28.205Z,26.60
2022-10-02T15:30:23.824Z,26.00
2022-10-02T15:33:25.606Z,25.80
2022-10-02T15:36:13.288Z,25.70
2022-10-02T15:39:15.437Z,25.40
2022-10-02T15:42:04.850Z,25.10
2022-10-02T15:45:06.821Z,24.70
2022-10-02T15:47:50.873Z,24.40
2022-10-02T15:51:03.716Z,24.20
2022-10-02T15:53:56.431Z,24.10
2022-10-02T15:56:57.642Z,23.90
2022-10-02T15:59:58.471Z,23.90
2022-10-02T16:02:57.660Z,23.80
2022-10-02T16:05:45.743Z,23.70
2022-10-02T16:08:46.640Z,23.50
2022-10-02T16:12:14.016Z,23.40
2022-10-02T16:18:00.823Z,23.00
2022-10-02T16:20:52.799Z,22.70
2022-10-02T16:23:30.426Z,22.60
2022-10-02T16:26:12.861Z,22.30
2022-10-02T16:29:01.745Z,22.10
2022-10-02T16:32:04.435Z,22.00
2022-10-02T16:35:20.265Z,21.90
2022-10-02T16:38:09.488Z,21.80
2022-10-02T16:40:59.264Z,21.70
2022-10-02T16:43:48.272Z,21.50
2022-10-02T16:46:40.086Z,21.50
2022-10-02T16:49:39.103Z,21.40
2022-10-02T16:52:32.680Z,21.30
2022-10-02T16:55:28.557Z,21.10
2022-10-02T16:58:31.117Z,21.00
2022-10-02T17:01:28.194Z,20.90
2022-10-02T17:04:33.689Z,20.80
2022-10-02T17:07:06.602Z,20.70
2022-10-02T17:09:49.038Z,20.50
2022-10-02T17:13:15.019Z,20.40
2022-10-02T17:16:09.497Z,20.30
2022-10-02T17:19:03.041Z,20.30
2022-10-02T17:22:05.316Z,20.20
2022-10-02T17:25:18.498Z,20.10
2022-10-02T17:27:58.984Z,20.00
2022-10-02T17:30:44.090Z,19.90
2022-10-02T17:33:23.488Z,19.90
2022-10-02T17:36:22.069Z,19.90
2022-10-02T17:39:15.979Z,19.90
2022-10-02T17:42:01.041Z,19.90
2022-10-02T17:44:53.857Z,19.90
2022-10-02T17:47:40.805Z,19.90
2022-10-02T17:53:40.198Z,19.80
2022-10-02T17:56:39.918Z,19.80
2022-10-02T17:59:24.493Z,19.70
2022-10-02T18:02:24.068Z,19.70
2022-10-02T18:05:27.299Z,19.60
2022-10-02T18:08:41.215Z,19.60
2022-10-02T18:11:34.907Z,19.50
2022-10-02T18:14:28.686Z,19.40
2022-10-02T18:17:24.820Z,19.40
2022-10-02T18:20:23.925Z,19.30
2022-10-02T18:23:17.502Z,19.30
2022-10-02T18:26:42.999Z,19.30
2022-10-02T18:29:53.877Z,19.20
2022-10-02T18:32:44.851Z,19.10
2022-10-02T18:35:37.706Z,19.10
2022-10-02T18:38:32.724Z,19.10
2022-10-02T18:41:44.788Z,19.10
2022-10-02T18:44:46.884Z,19.00
2022-10-02T18:47:33.678Z,19.00
2022-10-02T18:50:35.603Z,19.00
2022-10-02T18:53:36.910Z,19.00
2022-10-02T18:56:08.429Z,19.00
2022-10-02T18:59:06.840Z,19.00
2022-10-02T19:01:43.831Z,19.00
2022-10-02T19:04:42.892Z,19.00
2022-10-02T19:07:32.249Z,18.90
2022-10-02T19:10:39.406Z,19.00
2022-10-02T19:13:23.059Z,19.00
2022-10-02T19:15:59.633Z,18.90
2022-10-02T19:18:30.215Z,18.90
2022-10-02T19:21:16.293Z,18.90
2022-10-02T19:24:11.599Z,19.00
2022-10-02T19:26:54.497Z,19.00
2022-10-02T19:29:52.307Z,19.00
2022-10-02T19:32:27.333Z,19.00
2022-10-02T19:35:20.130Z,19.00
2022-10-02T19:37:54.797Z,18.90
2022-10-02T19:40:34.211Z,19.00
2022-10-02T19:43:37.503Z,18.90
2022-10-02T19:46:10.788Z,18.80
2022-10-02T19:48:44.913Z,18.80
2022-10-02T19:51:30.745Z,18.80
2022-10-02T19:54:09.148Z,18.90
2022-10-02T19:56:46.809Z,18.90
2022-10-02T19:59:30.223Z,19.00
2022-10-02T20:02:06.153Z,19.00
2022-10-02T20:04:38.680Z,19.00
2022-10-02T20:07:21.737Z,19.00
2022-10-02T20:10:02.507Z,19.00
2022-10-02T20:12:39.804Z,18.90
2022-10-02T20:16:05.521Z,18.90
2022-10-02T20:18:36.441Z,18.90
2022-10-02T20:21:36.995Z,19.00
2022-10-02T20:24:15.671Z,19.00
2022-10-02T20:26:47.633Z,19.00
2022-10-02T20:29:23.793Z,19.00
2022-10-02T20:32:08.252Z,18.90
2022-10-02T20:34:57.304Z,18.90
2022-10-02T20:37:35.357Z,18.80
2022-10-02T20:40:26.018Z,18.80
2022-10-02T20:43:42.355Z,18.80
2022-10-02T20:46:46.138Z,18.80
2022-10-02T20:49:56.546Z,18.70
2022-10-02T20:53:11.911Z,18.70
2022-10-02T20:55:57.358Z,18.70
2022-10-02T20:58:51.326Z,18.70
2022-10-02T21:01:59.162Z,18.70
2022-10-02T21:05:07.034Z,18.70
2022-10-02T21:08:16.198Z,18.80
2022-10-02T21:11:20.119Z,18.80
2022-10-02T21:14:32.292Z,18.80
2022-10-02T21:17:29.681Z,18.80
2022-10-02T21:20:50.920Z,18.80
2022-10-02T21:24:02.564Z,18.80
2022-10-02T21:27:15.559Z,18.80
2022-10-02T21:30:18.431Z,18.70
2022-10-02T21:33:08.675Z,18.60
2022-10-02T21:35:58.774Z,18.50
2022-10-02T21:38:53.577Z,18.50
2022-10-02T21:41:42.139Z,18.60
2022-10-02T21:44:42.784Z,18.50
2022-10-02T21:47:52.403Z,18.40
2022-10-02T21:51:01.100Z,18.30
2022-10-02T21:53:43.457Z,18.40
2022-10-02T21:56:53.279Z,18.40
2022-10-02T22:00:02.698Z,18.30
2022-10-02T22:02:57.640Z,18.20
2022-10-02T22:05:47.525Z,18.30
2022-10-02T22:08:37.309Z,18.30
2022-10-02T22:11:47.454Z,18.40
2022-10-02T22:14:41.705Z,18.40
2022-10-02T22:18:04.678Z,18.40
2022-10-02T22:21:19.665Z,18.40
2022-10-02T22:24:32.256Z,18.30
2022-10-02T22:27:14.523Z,18.30
2022-10-02T22:29:47.650Z,18.20
2022-10-02T22:33:18.837Z,18.20
2022-10-02T22:36:26.850Z,18.20
2022-10-02T22:39:29.987Z,18.10
2022-10-02T22:42:36.515Z,18.10
2022-10-02T22:45:32.563Z,18.10
2022-10-02T22:48:06.407Z,18.20
2022-10-02T22:50:36.560Z,18.20
2022-10-02T22:53:30.263Z,18.20
2022-10-02T22:56:03.166Z,18.30
2022-10-02T22:59:03.032Z,18.30
2022-10-02T23:01:48.779Z,18.30
2022-10-02T23:04:53.880Z,18.10
2022-10-02T23:07:35.362Z,17.90
2022-10-02T23:10:09.595Z,17.90
2022-10-02T23:13:18.132Z,17.80
2022-10-02T23:16:13.941Z,17.70
2022-10-02T23:19:28.545Z,17.80
2022-10-02T23:22:08.963Z,17.80
2022-10-02T23:25:01.541Z,17.60
2022-10-02T23:27:42.198Z,17.60
2022-10-02T23:30:13.650Z,17.60
2022-10-02T23:33:07.875Z,17.60
2022-10-02T23:35:50.892Z,17.70
2022-10-02T23:38:43.080Z,17.70
2022-10-02T23:41:47.526Z,17.80
2022-10-02T23:44:40.793Z,17.80
2022-10-02T23:47:45.139Z,17.90
2022-10-02T23:50:43.860Z,17.90
2022-10-02T23:53:49.492Z,17.80
2022-10-02T23:56:42.547Z,17.80
2022-10-02T23:59:54.554Z,17.80
